sensor_id;sensor_type;location;lat;lon;timestamp;temperature;humidity
11009;DHT22;5557;51.670;7.788;2023-04-21T00:01:24;9.00;56.00
11009;DHT22;5557;51.670;7.788;2023-04-21T00:03:51;9.10;55.50
11009;DHT22;5557;51.670;7.788;2023-04-21T00:06:18;9.10;56.90
11009;DHT22;5557;51.670;7.788;2023-04-21T00:08:49;9.10;58.50
11009;DHT22;5557;51.670;7.788;2023-04-21T00:11:16;9.10;59.70
11009;DHT22;5557;51.670;7.788;2023-04-21T00:13:43;9.10;60.60
11009;DHT22;5557;51.670;7.788;2023-04-21T00:16:11;9.10;60.90
11009;DHT22;5557;51.670;7.788;2023-04-21T00:18:38;9.20;61.90
11009;DHT22;5557;51.670;7.788;2023-04-21T00:21:05;9.20;62.90
11009;DHT22;5557;51.670;7.788;2023-04-21T00:23:32;9.20;63.40
11009;DHT22;5557;51.670;7.788;2023-04-21T00:25:59;9.20;65.00
11009;DHT22;5557;51.670;7.788;2023-04-21T00:28:28;9.20;65.00
11009;DHT22;5557;51.670;7.788;2023-04-21T00:30:56;9.20;66.10
11009;DHT22;5557;51.670;7.788;2023-04-21T00:33:23;9.20;67.00
11009;DHT22;5557;51.670;7.788;2023-04-21T00:35:50;9.20;68.10
11009;DHT22;5557;51.670;7.788;2023-04-21T00:38:17;9.20;70.30
11009;DHT22;5557;51.670;7.788;2023-04-21T00:40:43;9.20;69.30
11009;DHT22;5557;51.670;7.788;2023-04-21T00:43:10;9.20;69.40
11009;DHT22;5557;51.670;7.788;2023-04-21T00:45:37;9.20;69.00
11009;DHT22;5557;51.670;7.788;2023-04-21T00:48:05;9.20;69.50
11009;DHT22;5557;51.670;7.788;2023-04-21T00:50:32;9.20;70.80
11009;DHT22;5557;51.670;7.788;2023-04-21T00:53:00;9.10;71.00
11009;DHT22;5557;51.670;7.788;2023-04-21T00:55:27;9.10;72.70
11009;DHT22;5557;51.670;7.788;2023-04-21T00:57:55;9.10;73.60
11009;DHT22;5557;51.670;7.788;2023-04-21T01:00:22;9.10;73.80
11009;DHT22;5557;51.670;7.788;2023-04-21T01:02:49;9.10;75.30
11009;DHT22;5557;51.670;7.788;2023-04-21T01:05:16;9.20;75.70
11009;DHT22;5557;51.670;7.788;2023-04-21T01:07:44;9.20;75.80
11009;DHT22;5557;51.670;7.788;2023-04-21T01:10:11;9.20;76.60
11009;DHT22;5557;51.670;7.788;2023-04-21T01:12:45;9.20;76.90
11009;DHT22;5557;51.670;7.788;2023-04-21T01:15:17;9.20;76.90
11009;DHT22;5557;51.670;7.788;2023-04-21T01:17:44;9.20;77.30
11009;DHT22;5557;51.670;7.788;2023-04-21T01:20:13;9.30;77.90
11009;DHT22;5557;51.670;7.788;2023-04-21T01:22:41;9.20;77.80
11009;DHT22;5557;51.670;7.788;2023-04-21T01:25:08;9.30;78.30
11009;DHT22;5557;51.670;7.788;2023-04-21T01:27:35;9.30;79.10
11009;DHT22;5557;51.670;7.788;2023-04-21T01:30:04;9.30;79.80
11009;DHT22;5557;51.670;7.788;2023-04-21T01:32:33;9.30;79.60
11009;DHT22;5557;51.670;7.788;2023-04-21T01:35:00;9.30;80.50
11009;DHT22;5557;51.670;7.788;2023-04-21T01:37:29;9.20;80.40
11009;DHT22;5557;51.670;7.788;2023-04-21T01:40:00;9.30;81.10
11009;DHT22;5557;51.670;7.788;2023-04-21T01:42:29;9.20;81.40
11009;DHT22;5557;51.670;7.788;2023-04-21T01:44:56;9.20;83.20
11009;DHT22;5557;51.670;7.788;2023-04-21T01:47:24;9.20;83.50
11009;DHT22;5557;51.670;7.788;2023-04-21T01:49:51;9.30;85.10
11009;DHT22;5557;51.670;7.788;2023-04-21T01:52:19;9.30;85.20
11009;DHT22;5557;51.670;7.788;2023-04-21T01:54:46;9.30;85.20
11009;DHT22;5557;51.670;7.788;2023-04-21T01:57:14;9.30;85.10
11009;DHT22;5557;51.670;7.788;2023-04-21T01:59:41;9.30;85.80
11009;DHT22;5557;51.670;7.788;2023-04-21T02:02:08;9.30;86.60
11009;DHT22;5557;51.670;7.788;2023-04-21T02:04:35;9.30;85.70
11009;DHT22;5557;51.670;7.788;2023-04-21T02:07:03;9.40;85.20
11009;DHT22;5557;51.670;7.788;2023-04-21T02:09:30;9.40;85.20
11009;DHT22;5557;51.670;7.788;2023-04-21T02:11:57;9.40;85.90
11009;DHT22;5557;51.670;7.788;2023-04-21T02:14:24;9.40;85.20
11009;DHT22;5557;51.670;7.788;2023-04-21T02:16:51;9.40;85.10
11009;DHT22;5557;51.670;7.788;2023-04-21T02:19:19;9.40;85.20
11009;DHT22;5557;51.670;7.788;2023-04-21T02:21:46;9.40;85.10
11009;DHT22;5557;51.670;7.788;2023-04-21T02:24:13;9.40;84.70
11009;DHT22;5557;51.670;7.788;2023-04-21T02:26:40;9.40;84.70
11009;DHT22;5557;51.670;7.788;2023-04-21T02:29:07;9.30;84.00
11009;DHT22;5557;51.670;7.788;2023-04-21T02:31:34;9.30;84.60
11009;DHT22;5557;51.670;7.788;2023-04-21T02:34:20;9.30;85.20
11009;DHT22;5557;51.670;7.788;2023-04-21T02:36:47;9.30;85.80
11009;DHT22;5557;51.670;7.788;2023-04-21T02:39:14;9.30;86.50
11009;DHT22;5557;51.670;7.788;2023-04-21T02:41:41;9.30;86.80
11009;DHT22;5557;51.670;7.788;2023-04-21T02:44:08;9.30;87.80
11009;DHT22;5557;51.670;7.788;2023-04-21T02:46:35;9.20;88.20
11009;DHT22;5557;51.670;7.788;2023-04-21T02:49:01;9.20;89.00
11009;DHT22;5557;51.670;7.788;2023-04-21T02:51:28;9.20;89.10
11009;DHT22;5557;51.670;7.788;2023-04-21T02:53:55;9.20;89.60
11009;DHT22;5557;51.670;7.788;2023-04-21T02:56:22;9.10;90.50
11009;DHT22;5557;51.670;7.788;2023-04-21T02:58:49;9.20;90.90
11009;DHT22;5557;51.670;7.788;2023-04-21T03:01:17;9.10;91.00
11009;DHT22;5557;51.670;7.788;2023-04-21T03:03:44;9.10;91.20
11009;DHT22;5557;51.670;7.788;2023-04-21T03:06:11;9.10;91.30
11009;DHT22;5557;51.670;7.788;2023-04-21T03:08:38;9.10;91.50
11009;DHT22;5557;51.670;7.788;2023-04-21T03:11:05;9.10;91.70
11009;DHT22;5557;51.670;7.788;2023-04-21T03:13:32;9.10;92.10
11009;DHT22;5557;51.670;7.788;2023-04-21T03:15:59;9.10;92.60
11009;DHT22;5557;51.670;7.788;2023-04-21T03:18:26;9.10;92.90
11009;DHT22;5557;51.670;7.788;2023-04-21T03:20:58;9.10;93.30
11009;DHT22;5557;51.670;7.788;2023-04-21T03:23:25;9.10;93.80
11009;DHT22;5557;51.670;7.788;2023-04-21T03:25:52;9.10;93.80
11009;DHT22;5557;51.670;7.788;2023-04-21T03:28:19;9.10;93.80
11009;DHT22;5557;51.670;7.788;2023-04-21T03:30:47;9.20;93.90
11009;DHT22;5557;51.670;7.788;2023-04-21T03:33:14;9.20;93.90
11009;DHT22;5557;51.670;7.788;2023-04-21T03:35:48;9.30;93.90
11009;DHT22;5557;51.670;7.788;2023-04-21T03:38:15;9.30;92.90
11009;DHT22;5557;51.670;7.788;2023-04-21T03:40:42;9.40;92.20
11009;DHT22;5557;51.670;7.788;2023-04-21T03:43:10;9.50;90.80
11009;DHT22;5557;51.670;7.788;2023-04-21T03:45:37;9.50;89.80
11009;DHT22;5557;51.670;7.788;2023-04-21T03:48:04;9.60;88.10
11009;DHT22;5557;51.670;7.788;2023-04-21T03:50:31;9.60;85.60
11009;DHT22;5557;51.670;7.788;2023-04-21T03:53:01;9.70;83.50
11009;DHT22;5557;51.670;7.788;2023-04-21T03:55:28;9.80;80.20
11009;DHT22;5557;51.670;7.788;2023-04-21T03:57:58;9.80;77.10
11009;DHT22;5557;51.670;7.788;2023-04-21T04:00:25;9.90;76.30
11009;DHT22;5557;51.670;7.788;2023-04-21T04:02:53;9.90;74.30
11009;DHT22;5557;51.670;7.788;2023-04-21T04:05:20;9.90;72.60
11009;DHT22;5557;51.670;7.788;2023-04-21T04:07:47;10.00;70.70
11009;DHT22;5557;51.670;7.788;2023-04-21T04:10:14;10.00;70.60
11009;DHT22;5557;51.670;7.788;2023-04-21T04:12:41;10.00;69.10
11009;DHT22;5557;51.670;7.788;2023-04-21T04:15:08;10.00;68.00
11009;DHT22;5557;51.670;7.788;2023-04-21T04:17:35;10.00;67.90
11009;DHT22;5557;51.670;7.788;2023-04-21T04:20:02;10.10;66.90
11009;DHT22;5557;51.670;7.788;2023-04-21T04:22:30;10.10;66.00
11009;DHT22;5557;51.670;7.788;2023-04-21T04:24:57;10.10;65.90
11009;DHT22;5557;51.670;7.788;2023-04-21T04:27:26;10.10;65.90
11009;DHT22;5557;51.670;7.788;2023-04-21T04:29:53;10.10;65.90
11009;DHT22;5557;51.670;7.788;2023-04-21T04:32:20;10.10;66.30
11009;DHT22;5557;51.670;7.788;2023-04-21T04:34:47;10.10;66.70
11009;DHT22;5557;51.670;7.788;2023-04-21T04:37:14;10.10;65.10
11009;DHT22;5557;51.670;7.788;2023-04-21T04:39:41;10.10;63.70
11009;DHT22;5557;51.670;7.788;2023-04-21T04:42:08;10.20;62.60
11009;DHT22;5557;51.670;7.788;2023-04-21T04:44:35;10.20;61.30
11009;DHT22;5557;51.670;7.788;2023-04-21T04:47:03;10.20;60.70
11009;DHT22;5557;51.670;7.788;2023-04-21T04:49:30;10.20;59.90
11009;DHT22;5557;51.670;7.788;2023-04-21T04:51:57;10.30;60.00
11009;DHT22;5557;51.670;7.788;2023-04-21T04:54:25;10.40;57.90
11009;DHT22;5557;51.670;7.788;2023-04-21T04:56:54;10.50;55.40
11009;DHT22;5557;51.670;7.788;2023-04-21T04:59:23;10.50;52.30
11009;DHT22;5557;51.670;7.788;2023-04-21T05:01:50;10.40;54.30
11009;DHT22;5557;51.670;7.788;2023-04-21T05:04:18;10.40;56.00
11009;DHT22;5557;51.670;7.788;2023-04-21T05:06:46;10.30;56.70
11009;DHT22;5557;51.670;7.788;2023-04-21T05:09:13;10.40;56.80
11009;DHT22;5557;51.670;7.788;2023-04-21T05:11:40;10.30;57.30
11009;DHT22;5557;51.670;7.788;2023-04-21T05:14:07;10.40;58.00
11009;DHT22;5557;51.670;7.788;2023-04-21T05:16:35;10.30;59.60
11009;DHT22;5557;51.670;7.788;2023-04-21T05:19:02;10.30;62.50
11009;DHT22;5557;51.670;7.788;2023-04-21T05:21:29;10.30;63.10
11009;DHT22;5557;51.670;7.788;2023-04-21T05:23:57;10.30;64.00
11009;DHT22;5557;51.670;7.788;2023-04-21T05:26:25;10.30;66.10
11009;DHT22;5557;51.670;7.788;2023-04-21T05:28:56;10.30;67.40
11009;DHT22;5557;51.670;7.788;2023-04-21T05:31:24;10.20;67.70
11009;DHT22;5557;51.670;7.788;2023-04-21T05:33:52;10.30;67.10
11009;DHT22;5557;51.670;7.788;2023-04-21T05:36:19;10.30;67.50
11009;DHT22;5557;51.670;7.788;2023-04-21T05:38:46;10.30;67.10
11009;DHT22;5557;51.670;7.788;2023-04-21T05:41:13;10.30;67.50
11009;DHT22;5557;51.670;7.788;2023-04-21T05:43:40;10.40;63.90
11009;DHT22;5557;51.670;7.788;2023-04-21T05:46:08;10.40;61.50
11009;DHT22;5557;51.670;7.788;2023-04-21T05:48:36;10.40;59.60
11009;DHT22;5557;51.670;7.788;2023-04-21T05:51:13;10.40;58.30
11009;DHT22;5557;51.670;7.788;2023-04-21T05:53:44;10.50;56.50
11009;DHT22;5557;51.670;7.788;2023-04-21T05:56:11;10.50;56.50
11009;DHT22;5557;51.670;7.788;2023-04-21T05:58:39;10.50;54.60
11009;DHT22;5557;51.670;7.788;2023-04-21T06:01:07;10.50;56.30
11009;DHT22;5557;51.670;7.788;2023-04-21T06:03:34;10.50;53.50
11009;DHT22;5557;51.670;7.788;2023-04-21T06:06:03;10.50;52.10
11009;DHT22;5557;51.670;7.788;2023-04-21T06:08:31;10.60;52.20
11009;DHT22;5557;51.670;7.788;2023-04-21T06:10:59;10.60;51.80
11009;DHT22;5557;51.670;7.788;2023-04-21T06:13:26;10.60;51.70
11009;DHT22;5557;51.670;7.788;2023-04-21T06:15:53;10.60;51.60
11009;DHT22;5557;51.670;7.788;2023-04-21T06:18:21;10.60;52.80
11009;DHT22;5557;51.670;7.788;2023-04-21T06:20:53;10.70;54.60
11009;DHT22;5557;51.670;7.788;2023-04-21T06:23:20;10.70;52.00
11009;DHT22;5557;51.670;7.788;2023-04-21T06:25:59;10.70;51.70
11009;DHT22;5557;51.670;7.788;2023-04-21T06:28:26;10.70;52.80
11009;DHT22;5557;51.670;7.788;2023-04-21T06:30:53;10.70;51.70
11009;DHT22;5557;51.670;7.788;2023-04-21T06:33:20;10.70;51.80
11009;DHT22;5557;51.670;7.788;2023-04-21T06:35:48;10.70;48.10
11009;DHT22;5557;51.670;7.788;2023-04-21T06:38:15;10.80;50.90
11009;DHT22;5557;51.670;7.788;2023-04-21T06:40:42;10.80;52.10
11009;DHT22;5557;51.670;7.788;2023-04-21T06:43:10;10.90;52.40
11009;DHT22;5557;51.670;7.788;2023-04-21T06:45:36;10.80;50.60
11009;DHT22;5557;51.670;7.788;2023-04-21T06:48:04;10.90;54.20
11009;DHT22;5557;51.670;7.788;2023-04-21T06:50:31;10.90;53.50
11009;DHT22;5557;51.670;7.788;2023-04-21T06:52:58;10.90;52.00
11009;DHT22;5557;51.670;7.788;2023-04-21T06:55:25;10.90;51.40
11009;DHT22;5557;51.670;7.788;2023-04-21T06:57:52;11.00;44.50
11009;DHT22;5557;51.670;7.788;2023-04-21T07:00:19;11.10;44.10
11009;DHT22;5557;51.670;7.788;2023-04-21T07:02:46;11.20;40.40
11009;DHT22;5557;51.670;7.788;2023-04-21T07:05:14;11.20;41.00
11009;DHT22;5557;51.670;7.788;2023-04-21T07:07:41;11.30;39.10
11009;DHT22;5557;51.670;7.788;2023-04-21T07:10:08;11.30;40.90
11009;DHT22;5557;51.670;7.788;2023-04-21T07:12:35;11.40;38.50
11009;DHT22;5557;51.670;7.788;2023-04-21T07:15:03;11.60;35.90
11009;DHT22;5557;51.670;7.788;2023-04-21T07:17:30;11.70;31.40
11009;DHT22;5557;51.670;7.788;2023-04-21T07:19:57;11.90;28.70
11009;DHT22;5557;51.670;7.788;2023-04-21T07:22:24;12.10;23.60
11009;DHT22;5557;51.670;7.788;2023-04-21T07:24:51;12.20;22.20
11009;DHT22;5557;51.670;7.788;2023-04-21T07:27:18;12.10;20.90
11009;DHT22;5557;51.670;7.788;2023-04-21T07:29:45;12.00;20.90
11009;DHT22;5557;51.670;7.788;2023-04-21T07:32:13;12.00;22.30
11009;DHT22;5557;51.670;7.788;2023-04-21T07:34:41;12.10;21.40
11009;DHT22;5557;51.670;7.788;2023-04-21T07:37:08;12.10;20.50
11009;DHT22;5557;51.670;7.788;2023-04-21T07:39:36;12.10;19.60
11009;DHT22;5557;51.670;7.788;2023-04-21T07:42:03;12.10;19.30
11009;DHT22;5557;51.670;7.788;2023-04-21T07:44:34;12.20;17.10
11009;DHT22;5557;51.670;7.788;2023-04-21T07:47:01;12.30;17.20
11009;DHT22;5557;51.670;7.788;2023-04-21T07:49:28;12.30;17.70
11009;DHT22;5557;51.670;7.788;2023-04-21T07:51:55;12.40;15.50
11009;DHT22;5557;51.670;7.788;2023-04-21T07:54:21;12.40;14.10
11009;DHT22;5557;51.670;7.788;2023-04-21T07:56:48;12.40;14.10
11009;DHT22;5557;51.670;7.788;2023-04-21T07:59:15;12.60;14.80
11009;DHT22;5557;51.670;7.788;2023-04-21T08:01:42;12.60;12.30
11009;DHT22;5557;51.670;7.788;2023-04-21T08:04:09;12.60;13.10
11009;DHT22;5557;51.670;7.788;2023-04-21T08:06:37;12.70;13.00
11009;DHT22;5557;51.670;7.788;2023-04-21T08:09:04;12.90;13.70
11009;DHT22;5557;51.670;7.788;2023-04-21T08:11:31;12.80;11.00
11009;DHT22;5557;51.670;7.788;2023-04-21T08:13:58;12.80;12.00
11009;DHT22;5557;51.670;7.788;2023-04-21T08:16:25;12.90;12.00
11009;DHT22;5557;51.670;7.788;2023-04-21T08:18:52;12.90;11.10
11009;DHT22;5557;51.670;7.788;2023-04-21T08:21:19;12.90;11.80
11009;DHT22;5557;51.670;7.788;2023-04-21T08:23:46;13.00;11.80
11009;DHT22;5557;51.670;7.788;2023-04-21T08:26:13;13.00;10.00
11009;DHT22;5557;51.670;7.788;2023-04-21T08:28:40;13.00;11.20
11009;DHT22;5557;51.670;7.788;2023-04-21T08:31:07;13.10;10.60
11009;DHT22;5557;51.670;7.788;2023-04-21T08:33:37;13.10;10.30
11009;DHT22;5557;51.670;7.788;2023-04-21T08:36:15;13.20;8.60
11009;DHT22;5557;51.670;7.788;2023-04-21T08:38:55;13.30;6.90
11009;DHT22;5557;51.670;7.788;2023-04-21T08:41:22;13.30;5.90
11009;DHT22;5557;51.670;7.788;2023-04-21T08:43:50;13.30;6.90
11009;DHT22;5557;51.670;7.788;2023-04-21T08:46:17;13.30;5.40
11009;DHT22;5557;51.670;7.788;2023-04-21T08:48:46;13.40;5.30
11009;DHT22;5557;51.670;7.788;2023-04-21T08:51:21;13.50;4.70
11009;DHT22;5557;51.670;7.788;2023-04-21T08:53:48;13.50;3.40
11009;DHT22;5557;51.670;7.788;2023-04-21T08:56:15;13.50;2.50
11009;DHT22;5557;51.670;7.788;2023-04-21T08:58:42;13.60;2.60
11009;DHT22;5557;51.670;7.788;2023-04-21T09:01:09;13.80;2.60
11009;DHT22;5557;51.670;7.788;2023-04-21T09:03:38;13.90;1.00
11009;DHT22;5557;51.670;7.788;2023-04-21T09:06:07;13.80;1.90
11009;DHT22;5557;51.670;7.788;2023-04-21T09:08:42;13.70;1.20
11009;DHT22;5557;51.670;7.788;2023-04-21T09:11:13;13.80;1.50
11009;DHT22;5557;51.670;7.788;2023-04-21T09:13:41;13.90;1.00
11009;DHT22;5557;51.670;7.788;2023-04-21T09:16:17;14.00;1.00
11009;DHT22;5557;51.670;7.788;2023-04-21T09:18:46;14.10;1.00
11009;DHT22;5557;51.670;7.788;2023-04-21T09:21:18;14.20;1.00
11009;DHT22;5557;51.670;7.788;2023-04-21T09:23:50;14.40;1.00
11009;DHT22;5557;51.670;7.788;2023-04-21T09:26:22;14.60;1.00
11009;DHT22;5557;51.670;7.788;2023-04-21T09:28:52;14.50;1.00
11009;DHT22;5557;51.670;7.788;2023-04-21T09:31:22;14.50;1.00
11009;DHT22;5557;51.670;7.788;2023-04-21T09:33:56;14.50;1.00
11009;DHT22;5557;51.670;7.788;2023-04-21T09:36:29;14.40;1.00
11009;DHT22;5557;51.670;7.788;2023-04-21T09:38:59;14.40;1.00
11009;DHT22;5557;51.670;7.788;2023-04-21T09:41:30;14.40;1.00
11009;DHT22;5557;51.670;7.788;2023-04-21T09:43:58;14.60;1.00
11009;DHT22;5557;51.670;7.788;2023-04-21T09:46:32;14.70;1.00
11009;DHT22;5557;51.670;7.788;2023-04-21T09:49:00;14.80;1.00
11009;DHT22;5557;51.670;7.788;2023-04-21T09:51:29;14.70;1.00
11009;DHT22;5557;51.670;7.788;2023-04-21T09:54:19;14.70;1.00
11009;DHT22;5557;51.670;7.788;2023-04-21T09:56:59;14.60;1.00
11009;DHT22;5557;51.670;7.788;2023-04-21T09:59:39;14.60;1.00
11009;DHT22;5557;51.670;7.788;2023-04-21T10:02:11;14.50;1.00
11009;DHT22;5557;51.670;7.788;2023-04-21T10:04:40;14.50;1.00
11009;DHT22;5557;51.670;7.788;2023-04-21T10:07:09;14.60;1.00
11009;DHT22;5557;51.670;7.788;2023-04-21T10:09:44;14.40;1.00
11009;DHT22;5557;51.670;7.788;2023-04-21T10:12:12;14.30;1.00
11009;DHT22;5557;51.670;7.788;2023-04-21T10:14:39;14.30;1.10
11009;DHT22;5557;51.670;7.788;2023-04-21T10:17:10;14.40;1.00
11009;DHT22;5557;51.670;7.788;2023-04-21T10:19:47;14.60;1.30
11009;DHT22;5557;51.670;7.788;2023-04-21T10:22:26;14.80;1.00
11009;DHT22;5557;51.670;7.788;2023-04-21T10:24:55;15.10;1.00
11009;DHT22;5557;51.670;7.788;2023-04-21T10:27:54;15.30;1.00
11009;DHT22;5557;51.670;7.788;2023-04-21T10:30:24;15.50;1.00
11009;DHT22;5557;51.670;7.788;2023-04-21T10:33:02;15.50;1.00
11009;DHT22;5557;51.670;7.788;2023-04-21T10:35:59;15.70;1.00
11009;DHT22;5557;51.670;7.788;2023-04-21T10:38:41;16.00;1.00
11009;DHT22;5557;51.670;7.788;2023-04-21T10:41:31;16.10;1.00
11009;DHT22;5557;51.670;7.788;2023-04-21T10:44:00;16.20;1.00
11009;DHT22;5557;51.670;7.788;2023-04-21T10:46:34;16.30;1.00
11009;DHT22;5557;51.670;7.788;2023-04-21T10:49:10;16.20;1.00
11009;DHT22;5557;51.670;7.788;2023-04-21T10:52:02;16.10;1.00
11009;DHT22;5557;51.670;7.788;2023-04-21T10:57:44;15.80;1.00
11009;DHT22;5557;51.670;7.788;2023-04-21T11:00:15;15.70;1.00
11009;DHT22;5557;51.670;7.788;2023-04-21T11:02:43;15.90;1.00
11009;DHT22;5557;51.670;7.788;2023-04-21T11:05:18;15.80;1.00
11009;DHT22;5557;51.670;7.788;2023-04-21T11:07:45;15.90;1.00
11009;DHT22;5557;51.670;7.788;2023-04-21T11:10:12;15.90;1.00
11009;DHT22;5557;51.670;7.788;2023-04-21T11:12:40;16.00;1.00
11009;DHT22;5557;51.670;7.788;2023-04-21T11:15:10;16.00;1.00
11009;DHT22;5557;51.670;7.788;2023-04-21T11:17:38;16.00;1.00
11009;DHT22;5557;51.670;7.788;2023-04-21T11:20:09;16.00;1.00
11009;DHT22;5557;51.670;7.788;2023-04-21T11:22:39;16.00;1.00
11009;DHT22;5557;51.670;7.788;2023-04-21T11:25:16;16.00;1.00
11009;DHT22;5557;51.670;7.788;2023-04-21T11:27:53;15.90;1.00
11009;DHT22;5557;51.670;7.788;2023-04-21T11:30:21;16.00;1.00
11009;DHT22;5557;51.670;7.788;2023-04-21T11:32:57;16.10;1.00
11009;DHT22;5557;51.670;7.788;2023-04-21T11:35:24;16.10;1.00
11009;DHT22;5557;51.670;7.788;2023-04-21T11:37:51;16.10;1.00
11009;DHT22;5557;51.670;7.788;2023-04-21T11:40:18;16.30;1.00
11009;DHT22;5557;51.670;7.788;2023-04-21T11:42:46;16.70;1.00
11009;DHT22;5557;51.670;7.788;2023-04-21T11:45:19;16.70;1.00
11009;DHT22;5557;51.670;7.788;2023-04-21T11:47:48;16.80;1.00
11009;DHT22;5557;51.670;7.788;2023-04-21T11:50:31;17.10;1.00
11009;DHT22;5557;51.670;7.788;2023-04-21T11:52:58;17.40;1.00
11009;DHT22;5557;51.670;7.788;2023-04-21T11:55:27;17.40;1.00
11009;DHT22;5557;51.670;7.788;2023-04-21T11:57:56;17.50;1.00
11009;DHT22;5557;51.670;7.788;2023-04-21T12:00:23;17.80;1.00
11009;DHT22;5557;51.670;7.788;2023-04-21T12:02:55;17.90;1.00
11009;DHT22;5557;51.670;7.788;2023-04-21T12:05:23;18.20;1.00
11009;DHT22;5557;51.670;7.788;2023-04-21T12:07:50;18.60;1.00
11009;DHT22;5557;51.670;7.788;2023-04-21T12:10:19;18.70;1.00
11009;DHT22;5557;51.670;7.788;2023-04-21T12:12:47;18.70;1.00
11009;DHT22;5557;51.670;7.788;2023-04-21T12:15:20;18.70;1.00
11009;DHT22;5557;51.670;7.788;2023-04-21T12:17:50;18.80;1.00
11009;DHT22;5557;51.670;7.788;2023-04-21T12:20:22;19.10;1.00
11009;DHT22;5557;51.670;7.788;2023-04-21T12:22:49;19.10;1.00
11009;DHT22;5557;51.670;7.788;2023-04-21T12:25:17;19.20;1.00
11009;DHT22;5557;51.670;7.788;2023-04-21T12:27:51;19.30;1.00
11009;DHT22;5557;51.670;7.788;2023-04-21T12:30:19;19.50;1.00
11009;DHT22;5557;51.670;7.788;2023-04-21T12:32:47;19.30;1.00
11009;DHT22;5557;51.670;7.788;2023-04-21T12:35:15;19.30;1.00
11009;DHT22;5557;51.670;7.788;2023-04-21T12:37:42;19.40;1.00
11009;DHT22;5557;51.670;7.788;2023-04-21T12:40:10;19.50;1.00
11009;DHT22;5557;51.670;7.788;2023-04-21T12:42:37;19.60;1.00
11009;DHT22;5557;51.670;7.788;2023-04-21T12:45:05;19.60;1.00
11009;DHT22;5557;51.670;7.788;2023-04-21T12:47:32;19.60;1.00
11009;DHT22;5557;51.670;7.788;2023-04-21T12:49:59;19.40;1.00
11009;DHT22;5557;51.670;7.788;2023-04-21T12:52:27;19.40;1.00
11009;DHT22;5557;51.670;7.788;2023-04-21T12:54:54;19.40;1.00
11009;DHT22;5557;51.670;7.788;2023-04-21T12:57:21;19.60;1.00
11009;DHT22;5557;51.670;7.788;2023-04-21T12:59:48;19.60;1.00
11009;DHT22;5557;51.670;7.788;2023-04-21T13:02:15;19.60;1.00
11009;DHT22;5557;51.670;7.788;2023-04-21T13:04:43;19.50;1.00
11009;DHT22;5557;51.670;7.788;2023-04-21T13:07:10;19.30;1.00
11009;DHT22;5557;51.670;7.788;2023-04-21T13:09:38;19.20;1.00
11009;DHT22;5557;51.670;7.788;2023-04-21T13:12:05;18.90;1.00
11009;DHT22;5557;51.670;7.788;2023-04-21T13:14:32;19.00;1.00
11009;DHT22;5557;51.670;7.788;2023-04-21T13:16:59;19.10;1.00
11009;DHT22;5557;51.670;7.788;2023-04-21T13:19:26;19.20;1.00
11009;DHT22;5557;51.670;7.788;2023-04-21T13:21:54;19.20;1.00
11009;DHT22;5557;51.670;7.788;2023-04-21T13:24:22;19.30;1.00
11009;DHT22;5557;51.670;7.788;2023-04-21T13:26:51;19.30;1.00
11009;DHT22;5557;51.670;7.788;2023-04-21T13:29:18;19.10;1.00
11009;DHT22;5557;51.670;7.788;2023-04-21T13:31:45;19.10;1.00
11009;DHT22;5557;51.670;7.788;2023-04-21T13:34:12;19.10;1.00
11009;DHT22;5557;51.670;7.788;2023-04-21T13:36:40;19.10;1.00
11009;DHT22;5557;51.670;7.788;2023-04-21T13:39:10;19.10;1.00
11009;DHT22;5557;51.670;7.788;2023-04-21T13:41:37;19.20;1.00
11009;DHT22;5557;51.670;7.788;2023-04-21T13:44:05;19.10;1.00
11009;DHT22;5557;51.670;7.788;2023-04-21T13:46:32;18.60;1.00
11009;DHT22;5557;51.670;7.788;2023-04-21T13:48:59;18.70;1.00
11009;DHT22;5557;51.670;7.788;2023-04-21T13:51:26;18.90;1.00
11009;DHT22;5557;51.670;7.788;2023-04-21T13:53:53;19.00;1.00
11009;DHT22;5557;51.670;7.788;2023-04-21T13:56:20;18.80;1.00
11009;DHT22;5557;51.670;7.788;2023-04-21T13:58:48;18.60;1.00
11009;DHT22;5557;51.670;7.788;2023-04-21T14:01:15;18.40;1.00
11009;DHT22;5557;51.670;7.788;2023-04-21T14:03:46;18.60;1.00
11009;DHT22;5557;51.670;7.788;2023-04-21T14:06:13;18.80;1.00
11009;DHT22;5557;51.670;7.788;2023-04-21T14:08:40;19.00;1.00
11009;DHT22;5557;51.670;7.788;2023-04-21T14:11:07;19.00;1.00
11009;DHT22;5557;51.670;7.788;2023-04-21T14:13:34;18.80;1.00
11009;DHT22;5557;51.670;7.788;2023-04-21T14:16:13;18.70;1.00
11009;DHT22;5557;51.670;7.788;2023-04-21T14:18:41;18.50;1.00
11009;DHT22;5557;51.670;7.788;2023-04-21T14:21:10;18.40;1.00
11009;DHT22;5557;51.670;7.788;2023-04-21T14:23:38;18.20;1.00
11009;DHT22;5557;51.670;7.788;2023-04-21T14:26:05;18.10;1.00
11009;DHT22;5557;51.670;7.788;2023-04-21T14:28:32;17.90;1.00
11009;DHT22;5557;51.670;7.788;2023-04-21T14:30:59;17.80;1.00
11009;DHT22;5557;51.670;7.788;2023-04-21T14:33:28;17.70;1.00
11009;DHT22;5557;51.670;7.788;2023-04-21T14:35:56;17.60;1.00
11009;DHT22;5557;51.670;7.788;2023-04-21T14:38:23;17.60;1.00
11009;DHT22;5557;51.670;7.788;2023-04-21T14:40:51;17.60;1.00
11009;DHT22;5557;51.670;7.788;2023-04-21T14:43:21;17.60;1.00
11009;DHT22;5557;51.670;7.788;2023-04-21T14:45:48;17.60;1.00
11009;DHT22;5557;51.670;7.788;2023-04-21T14:48:15;17.70;1.00
11009;DHT22;5557;51.670;7.788;2023-04-21T14:50:42;17.70;1.00
11009;DHT22;5557;51.670;7.788;2023-04-21T14:53:09;17.70;1.00
11009;DHT22;5557;51.670;7.788;2023-04-21T14:55:36;17.80;1.00
11009;DHT22;5557;51.670;7.788;2023-04-21T14:58:03;17.80;1.00
11009;DHT22;5557;51.670;7.788;2023-04-21T15:00:30;17.80;1.00
11009;DHT22;5557;51.670;7.788;2023-04-21T15:02:58;17.80;1.00
11009;DHT22;5557;51.670;7.788;2023-04-21T15:05:25;17.80;1.00
11009;DHT22;5557;51.670;7.788;2023-04-21T15:07:52;17.80;1.00
11009;DHT22;5557;51.670;7.788;2023-04-21T15:10:19;17.80;1.00
11009;DHT22;5557;51.670;7.788;2023-04-21T15:12:47;17.80;1.00
11009;DHT22;5557;51.670;7.788;2023-04-21T15:15:14;17.80;1.00
11009;DHT22;5557;51.670;7.788;2023-04-21T15:17:41;17.90;1.00
11009;DHT22;5557;51.670;7.788;2023-04-21T15:20:09;17.90;1.00
11009;DHT22;5557;51.670;7.788;2023-04-21T15:22:36;18.00;1.00
11009;DHT22;5557;51.670;7.788;2023-04-21T15:25:04;18.00;1.00
11009;DHT22;5557;51.670;7.788;2023-04-21T15:27:32;18.00;1.00
11009;DHT22;5557;51.670;7.788;2023-04-21T15:29:59;18.10;1.00
11009;DHT22;5557;51.670;7.788;2023-04-21T15:32:26;18.10;1.00
11009;DHT22;5557;51.670;7.788;2023-04-21T15:34:57;18.20;1.00
11009;DHT22;5557;51.670;7.788;2023-04-21T15:37:24;18.20;1.00
11009;DHT22;5557;51.670;7.788;2023-04-21T15:39:52;18.20;1.00
11009;DHT22;5557;51.670;7.788;2023-04-21T15:42:19;18.30;1.00
11009;DHT22;5557;51.670;7.788;2023-04-21T15:44:46;18.30;1.00
11009;DHT22;5557;51.670;7.788;2023-04-21T15:47:14;18.30;1.00
11009;DHT22;5557;51.670;7.788;2023-04-21T15:49:43;18.30;1.00
11009;DHT22;5557;51.670;7.788;2023-04-21T15:52:10;18.30;1.00
11009;DHT22;5557;51.670;7.788;2023-04-21T15:54:37;18.30;1.00
11009;DHT22;5557;51.670;7.788;2023-04-21T15:57:05;18.30;1.00
11009;DHT22;5557;51.670;7.788;2023-04-21T15:59:33;18.30;1.00
11009;DHT22;5557;51.670;7.788;2023-04-21T16:02:02;18.40;1.00
11009;DHT22;5557;51.670;7.788;2023-04-21T16:04:29;18.40;1.00
11009;DHT22;5557;51.670;7.788;2023-04-21T16:06:57;18.40;1.00
11009;DHT22;5557;51.670;7.788;2023-04-21T16:09:24;18.40;1.00